Hunter Army Air Field
KSVN : now visible

Airfield :











YOU CAN JOIN US ON...

 
LOGIN :

Register | Disclaimer

   EN    FR    IT 

 









Legend :    VFR   Marginal VFR   IFR   Intensive IFR   Very Intensive IFR
Visi :
Ceiling :
>= 8 km
>= 3000ft
5 to 8 km
1000 to 3000 ft
1500m to 5 km
500 to 1000 ft
800 to 1500m
200 to 500 ft
< 800m
< 200 ft
Symbols :   Thunderstorms  Fog  Heavy snow  Heavy precipitations  Wind > 20 kt






- Airport Elevation : 41 ft


KSVN - Hunter Army Air Field

CURRENT METAR :
  • 090926Z AUTO 10006KT 1SM R28/5500FT BR VV002 14/12 A3011 RMK AO2 SLP199 $

EXPIRED METARs :
  • 090916Z AUTO 09006KT 1SM R28/5500V6000FT BR VV002 14/12 A3011 RMK AO2 SLP199 $
  • 090856Z AUTO 10007KT 1 1/4SM BR OVC002 14/12 A3011 RMK AO2 VIS 1 1/4V1 3/4 CIG 001 RWY10 SLP199 T01350119 57015 $
  • 090841Z AUTO 09007KT 2 1/4SM BR OVC002 14/12 A3012 RMK AO2 CIG 001 RWY10 SLP203 $
  • 090811Z AUTO 10007KT 4SM BR OVC002 13/12 A3013 RMK AO2 VIS 2 1/4 RWY10 CIG 001 RWY10 SLP206 $
  • 090756Z AUTO 09009KT 2 3/4SM BR OVC001 13/12 A3013 RMK AO2 SLP206 T01330115 $
  • 090711Z AUTO 08008KT 10SM OVC003 13/11 A3015 RMK AO2 CIG 003V005 SLP213 $
  • 090656Z AUTO 08005KT 10SM OVC005 12/10 A3015 RMK AO2 OVC V BKN SLP213 T01240099 $

TAF AMD TAF KSVN
Valid from the 09 at 06:00 until the 10 at 11:00 UTC


090650Z 0906/1011 09006KT 9999 BKN005 QNH3011INS
BECMG 0910/0911 14006KT 9999 SCT015 OVC050 QNH3010INS
BECMG 0915/0916 17009KT 9999 FEW020 BKN080 QNH3007INS
BECMG 0923/0924 18006KT 9999 BKN020 BKN060 QNH3009INS TX24/0919Z TN11/0906Z



MET'MAP, your aeronautical weather chart ! - Copyright ORBIFLY December 2007 - Disclaimer

ORBIFLY MET'MAP TEAM :

Programming & Development : Alexandra Zaïnal
Concept & original design : Baudouin d'Aumeries
Assistance for programming : Marc-Olivier Méhu
Technical & hardware support : Manuel Goepfert

Contact : metmap@orbifly.com




SOURCES & CREDITS :

   NOAA       Earth
Advisory